Time;durP1;ratioP1;P1;durP2;ratioP2;P2;SDS_P1;SDS_P2;PMS_P1;PMS_P2;Temp;Humidity;BMP_temperature;BMP_pressure;BME280_temperature;BME280_humidity;BME280_pressure;Samples;Min_cycle;Max_cycle;Signal;HPM_P1;HPM_P2
2022/10/06 00:01:20;;;;;;;;;;;23.80;42.70;;;;;;487180;245;1193;-75
2022/10/06 00:03:22;;;;;;;;;;;23.80;42.80;;;;;;487048;244;1178;-75
2022/10/06 00:05:23;;;;;;;;;;;23.80;42.70;;;;;;487187;245;2139;-75
2022/10/06 00:07:25;;;;;;;;;;;23.80;42.70;;;;;;487198;245;1172;-75
2022/10/06 00:09:26;;;;;;;;;;;23.80;42.70;;;;;;487184;245;1267;-75
2022/10/06 00:11:27;;;;;;;;;;;23.80;42.60;;;;;;487181;245;1135;-75
2022/10/06 00:13:29;;;;;;;;;;;23.90;42.60;;;;;;487203;245;1337;-75
2022/10/06 00:15:30;;;;;;;;;;;23.90;42.50;;;;;;487203;245;1147;-75
2022/10/06 00:17:31;;;;;;;;;;;23.90;42.40;;;;;;487225;245;1183;-75
2022/10/06 00:19:33;;;;;;;;;;;23.90;42.30;;;;;;487232;245;1137;-75
2022/10/06 00:21:34;;;;;;;;;;;23.90;42.30;;;;;;487259;245;1168;-75
2022/10/06 00:23:36;;;;;;;;;;;23.90;42.20;;;;;;487237;244;2187;-75
2022/10/06 00:25:37;;;;;;;;;;;23.90;42.10;;;;;;487302;245;1126;-75
2022/10/06 00:27:39;;;;;;;;;;;23.90;42.30;;;;;;487265;245;1168;-75
2022/10/06 00:29:41;;;;;;;;;;;24.00;42.20;;;;;;487149;245;1430;-75
2022/10/06 00:31:42;;;;;;;;;;;23.90;42.20;;;;;;487218;244;1386;-75
2022/10/06 00:33:42;;;;;;;;;;;23.90;42.10;;;;;;487059;245;1465;-75
2022/10/06 00:35:44;;;;;;;;;;;23.80;42.20;;;;;;487283;244;1131;-75
2022/10/06 00:37:45;;;;;;;;;;;23.90;42.20;;;;;;487275;245;1100;-75
2022/10/06 00:39:47;;;;;;;;;;;24.00;42.10;;;;;;487324;245;1317;-75
2022/10/06 00:41:48;;;;;;;;;;;23.90;42.00;;;;;;487236;245;1170;-75
2022/10/06 00:43:49;;;;;;;;;;;24.00;42.00;;;;;;487455;244;2195;-75
2022/10/06 00:45:51;;;;;;;;;;;24.00;42.00;;;;;;487274;245;1060;-75
2022/10/06 00:47:52;;;;;;;;;;;23.90;42.00;;;;;;487290;245;1094;-75
2022/10/06 00:49:53;;;;;;;;;;;24.00;42.00;;;;;;487327;245;1084;-75
2022/10/06 00:51:55;;;;;;;;;;;24.00;41.80;;;;;;487258;245;1145;-75
2022/10/06 00:53:57;;;;;;;;;;;24.00;41.90;;;;;;487299;245;1084;-75
2022/10/06 00:55:58;;;;;;;;;;;24.00;41.90;;;;;;487291;245;1042;-75
2022/10/06 00:58:00;;;;;;;;;;;24.00;41.90;;;;;;487288;245;1191;-75
2022/10/06 01:00:01;;;;;;;;;;;24.00;41.80;;;;;;487262;245;1149;-75
2022/10/06 01:02:03;;;;;;;;;;;24.00;41.80;;;;;;487289;244;1160;-75
2022/10/06 01:04:04;;;;;;;;;;;23.90;41.80;;;;;;487130;245;2194;-75
2022/10/06 01:06:05;;;;;;;;;;;23.90;41.80;;;;;;487247;245;1253;-75
2022/10/06 01:08:07;;;;;;;;;;;23.90;41.70;;;;;;487242;245;1188;-75
2022/10/06 01:10:08;;;;;;;;;;;23.90;41.70;;;;;;487237;245;1168;-75
2022/10/06 01:12:09;;;;;;;;;;;23.90;41.70;;;;;;487324;245;1063;-75
2022/10/06 01:14:11;;;;;;;;;;;23.90;41.70;;;;;;487270;245;1143;-75
2022/10/06 01:16:13;;;;;;;;;;;23.90;41.70;;;;;;487242;245;1392;-75
2022/10/06 01:18:13;;;;;;;;;;;23.90;41.60;;;;;;487240;245;1420;-75
2022/10/06 01:20:15;;;;;;;;;;;23.90;41.70;;;;;;487243;244;1159;-75
2022/10/06 01:22:16;;;;;;;;;;;23.80;41.70;;;;;;487270;245;1460;-75
2022/10/06 01:24:18;;;;;;;;;;;23.90;41.70;;;;;;487243;245;2190;-75
2022/10/06 01:26:19;;;;;;;;;;;23.90;41.70;;;;;;487284;244;1252;-74
2022/10/06 01:28:20;;;;;;;;;;;23.90;41.70;;;;;;487233;245;1178;-75
2022/10/06 01:30:22;;;;;;;;;;;23.90;41.70;;;;;;487228;245;1177;-75
2022/10/06 01:32:23;;;;;;;;;;;23.90;41.70;;;;;;487153;245;1204;-75
2022/10/06 01:34:24;;;;;;;;;;;23.90;41.60;;;;;;487198;245;1426;-75
2022/10/06 01:36:26;;;;;;;;;;;23.90;41.50;;;;;;487279;245;1142;-75
2022/10/06 01:38:27;;;;;;;;;;;23.90;41.50;;;;;;487299;245;1111;-75
2022/10/06 01:40:29;;;;;;;;;;;23.90;41.40;;;;;;487317;245;1024;-75
2022/10/06 01:42:31;;;;;;;;;;;23.90;41.50;;;;;;487301;244;1099;-75
2022/10/06 01:44:31;;;;;;;;;;;23.90;41.50;;;;;;486918;245;2175;-75
2022/10/06 01:46:33;;;;;;;;;;;23.90;41.40;;;;;;487292;245;1113;-75
2022/10/06 01:48:34;;;;;;;;;;;23.90;41.30;;;;;;487296;245;1085;-75
2022/10/06 01:50:35;;;;;;;;;;;23.90;41.30;;;;;;487356;244;1195;-75
2022/10/06 01:52:37;;;;;;;;;;;23.90;41.40;;;;;;487282;245;1154;-75
2022/10/06 01:54:38;;;;;;;;;;;23.80;41.30;;;;;;487361;244;1122;-75
2022/10/06 01:56:39;;;;;;;;;;;23.70;41.60;;;;;;487326;245;1091;-75
2022/10/06 01:58:41;;;;;;;;;;;23.70;41.60;;;;;;487258;245;1244;-75
2022/10/06 02:00:42;;;;;;;;;;;23.70;41.60;;;;;;487317;245;1220;-75
2022/10/06 02:02:43;;;;;;;;;;;23.70;41.60;;;;;;487216;245;1512;-75
2022/10/06 02:04:46;;;;;;;;;;;23.70;41.50;;;;;;487217;245;2213;-75
2022/10/06 02:06:47;;;;;;;;;;;23.80;41.50;;;;;;487305;245;1353;-75
2022/10/06 02:08:48;;;;;;;;;;;23.80;41.40;;;;;;487282;245;1123;-75
2022/10/06 02:10:50;;;;;;;;;;;23.80;41.40;;;;;;487279;245;1255;-74
2022/10/06 02:12:51;;;;;;;;;;;23.80;41.40;;;;;;487309;245;1128;-74
2022/10/06 02:14:52;;;;;;;;;;;23.80;41.30;;;;;;487287;245;1172;-74
2022/10/06 02:16:54;;;;;;;;;;;23.80;41.30;;;;;;487313;245;1132;-74
2022/10/06 02:18:55;;;;;;;;;;;23.80;41.20;;;;;;487290;245;1109;-74
2022/10/06 02:20:56;;;;;;;;;;;23.80;41.30;;;;;;487304;245;1184;-74
2022/10/06 02:22:58;;;;;;;;;;;23.80;41.10;;;;;;487283;245;1301;-74
2022/10/06 02:24:59;;;;;;;;;;;23.80;41.20;;;;;;487286;245;2187;-74
2022/10/06 02:27:01;;;;;;;;;;;23.90;41.20;;;;;;487284;245;1158;-74
2022/10/06 02:29:02;;;;;;;;;;;23.80;41.10;;;;;;487279;244;1104;-74
2022/10/06 02:31:03;;;;;;;;;;;23.90;41.10;;;;;;487303;245;1063;-74
2022/10/06 02:33:05;;;;;;;;;;;23.90;41.00;;;;;;487160;245;1153;-75
2022/10/06 02:35:06;;;;;;;;;;;23.80;41.00;;;;;;487313;245;1225;-75
2022/10/06 02:37:07;;;;;;;;;;;23.90;40.90;;;;;;487280;244;1100;-75
2022/10/06 02:39:09;;;;;;;;;;;23.80;40.90;;;;;;487306;245;1115;-75
2022/10/06 02:41:10;;;;;;;;;;;23.80;41.00;;;;;;487231;245;1394;-75
2022/10/06 02:43:11;;;;;;;;;;;23.80;41.00;;;;;;487293;245;1099;-75
2022/10/06 02:45:13;;;;;;;;;;;23.80;40.90;;;;;;487256;245;2147;-75
2022/10/06 02:47:14;;;;;;;;;;;23.90;41.00;;;;;;487337;244;1156;-75
2022/10/06 02:49:16;;;;;;;;;;;23.80;40.80;;;;;;487294;245;1243;-75
2022/10/06 02:51:17;;;;;;;;;;;23.80;40.70;;;;;;487339;244;1505;-75
2022/10/06 02:53:18;;;;;;;;;;;23.80;40.80;;;;;;487270;245;1155;-75
2022/10/06 02:55:20;;;;;;;;;;;23.80;41.00;;;;;;487283;245;1214;-75
2022/10/06 02:57:21;;;;;;;;;;;23.90;41.00;;;;;;487311;245;1039;-75
2022/10/06 02:59:22;;;;;;;;;;;23.90;41.00;;;;;;487291;245;1054;-75
2022/10/06 03:01:24;;;;;;;;;;;23.90;41.00;;;;;;487318;244;1214;-75
2022/10/06 03:03:25;;;;;;;;;;;23.90;41.00;;;;;;487165;245;1150;-74
2022/10/06 03:05:26;;;;;;;;;;;23.80;41.00;;;;;;487208;244;2175;-75
2022/10/06 03:07:28;;;;;;;;;;;23.90;41.00;;;;;;487292;245;1231;-75
2022/10/06 03:09:29;;;;;;;;;;;23.80;41.00;;;;;;487299;245;1116;-75
2022/10/06 03:11:31;;;;;;;;;;;23.90;41.00;;;;;;487217;245;1214;-75
2022/10/06 03:13:32;;;;;;;;;;;23.80;40.90;;;;;;487262;245;1431;-75
2022/10/06 03:15:33;;;;;;;;;;;23.80;40.90;;;;;;487245;244;1249;-75
2022/10/06 03:17:34;;;;;;;;;;;23.90;40.90;;;;;;487305;245;1183;-75
2022/10/06 03:19:36;;;;;;;;;;;23.90;40.90;;;;;;487294;245;1265;-75
2022/10/06 03:21:37;;;;;;;;;;;23.80;40.70;;;;;;487257;244;1103;-75
2022/10/06 03:23:39;;;;;;;;;;;23.80;40.80;;;;;;487246;245;1160;-75
2022/10/06 03:25:40;;;;;;;;;;;23.90;40.70;;;;;;487203;245;2178;-75
2022/10/06 03:27:41;;;;;;;;;;;23.80;40.60;;;;;;487244;245;1209;-75
2022/10/06 03:29:44;;;;;;;;;;;23.90;40.60;;;;;;487224;245;1170;-75
2022/10/06 03:31:44;;;;;;;;;;;23.80;40.70;;;;;;487186;245;1471;-75
2022/10/06 03:33:46;;;;;;;;;;;23.70;40.70;;;;;;486513;245;1544;-75
2022/10/06 03:35:47;;;;;;;;;;;23.80;40.60;;;;;;487234;245;1264;-75
2022/10/06 03:37:48;;;;;;;;;;;23.90;40.60;;;;;;487257;245;1229;-75
2022/10/06 03:39:50;;;;;;;;;;;23.80;40.50;;;;;;487267;245;1167;-75
2022/10/06 03:41:51;;;;;;;;;;;23.90;40.40;;;;;;487226;245;1191;-75
2022/10/06 03:43:52;;;;;;;;;;;23.90;40.50;;;;;;487249;245;1418;-75
2022/10/06 03:45:54;;;;;;;;;;;23.90;40.30;;;;;;487231;245;2191;-75
2022/10/06 03:47:55;;;;;;;;;;;23.80;40.40;;;;;;487295;245;1110;-75
2022/10/06 03:49:56;;;;;;;;;;;23.90;40.40;;;;;;487281;245;1111;-75
2022/10/06 03:51:58;;;;;;;;;;;23.90;40.30;;;;;;487284;245;1461;-75
2022/10/06 03:53:59;;;;;;;;;;;23.90;40.30;;;;;;487269;245;1162;-75
2022/10/06 03:56:00;;;;;;;;;;;23.90;40.20;;;;;;487261;245;1249;-75
2022/10/06 03:58:02;;;;;;;;;;;23.90;40.20;;;;;;487317;245;1174;-75
2022/10/06 04:00:03;;;;;;;;;;;23.80;40.20;;;;;;487237;245;1098;-75
2022/10/06 04:02:05;;;;;;;;;;;23.90;40.10;;;;;;487198;245;1279;-75
2022/10/06 04:04:06;;;;;;;;;;;23.90;40.10;;;;;;487124;245;1084;-74
2022/10/06 04:06:07;;;;;;;;;;;23.90;40.00;;;;;;487177;245;2203;-75
2022/10/06 04:08:09;;;;;;;;;;;23.80;40.00;;;;;;487226;245;1192;-75
2022/10/06 04:10:10;;;;;;;;;;;23.90;40.10;;;;;;487255;244;1225;-75
2022/10/06 04:12:11;;;;;;;;;;;23.80;40.10;;;;;;487148;245;1424;-75
2022/10/06 04:14:14;;;;;;;;;;;23.90;40.10;;;;;;487141;245;1366;-75
2022/10/06 04:16:14;;;;;;;;;;;23.80;40.00;;;;;;487113;245;1986;-75
2022/10/06 04:18:15;;;;;;;;;;;23.90;40.00;;;;;;487194;244;1130;-75
2022/10/06 04:20:17;;;;;;;;;;;23.90;40.00;;;;;;487204;245;1312;-75
2022/10/06 04:22:18;;;;;;;;;;;23.90;40.10;;;;;;487193;244;1298;-75
2022/10/06 04:24:19;;;;;;;;;;;23.80;40.10;;;;;;487207;245;1164;-75
2022/10/06 04:26:21;;;;;;;;;;;23.90;40.10;;;;;;487109;245;2182;-75
2022/10/06 04:28:22;;;;;;;;;;;23.90;40.10;;;;;;487236;245;1325;-75
2022/10/06 04:30:24;;;;;;;;;;;23.90;40.00;;;;;;487157;245;1127;-74
2022/10/06 04:32:25;;;;;;;;;;;23.90;40.00;;;;;;487130;245;1214;-74
2022/10/06 04:34:27;;;;;;;;;;;23.80;39.90;;;;;;487157;244;1940;-75
2022/10/06 04:36:28;;;;;;;;;;;23.90;40.00;;;;;;487228;245;1223;-75
2022/10/06 04:38:29;;;;;;;;;;;23.80;39.90;;;;;;487137;245;1125;-75
2022/10/06 04:40:30;;;;;;;;;;;23.80;40.00;;;;;;487229;244;1157;-75
2022/10/06 04:42:32;;;;;;;;;;;23.80;40.00;;;;;;487219;245;1248;-75
2022/10/06 04:44:33;;;;;;;;;;;23.90;40.00;;;;;;487211;245;1119;-75
2022/10/06 04:46:34;;;;;;;;;;;23.80;39.90;;;;;;487164;245;2189;-75
2022/10/06 04:48:36;;;;;;;;;;;23.90;40.00;;;;;;487232;245;1087;-75
2022/10/06 04:50:37;;;;;;;;;;;23.80;40.00;;;;;;487189;245;1333;-75
2022/10/06 04:52:38;;;;;;;;;;;23.90;40.10;;;;;;487192;245;1321;-75
2022/10/06 04:54:40;;;;;;;;;;;23.80;40.20;;;;;;487205;245;1087;-75
2022/10/06 04:56:41;;;;;;;;;;;23.80;40.20;;;;;;487133;245;1149;-75
2022/10/06 04:58:42;;;;;;;;;;;23.80;40.30;;;;;;487272;244;1355;-75
2022/10/06 05:00:44;;;;;;;;;;;23.80;40.40;;;;;;487207;245;1119;-75
2022/10/06 05:02:45;;;;;;;;;;;23.90;40.40;;;;;;487159;245;1181;-75
2022/10/06 05:04:47;;;;;;;;;;;23.80;40.40;;;;;;487087;245;1080;-75
2022/10/06 05:06:48;;;;;;;;;;;23.80;40.40;;;;;;487191;245;2202;-75
2022/10/06 05:08:49;;;;;;;;;;;23.70;40.50;;;;;;487284;245;1212;-75
2022/10/06 05:10:51;;;;;;;;;;;23.80;40.50;;;;;;487235;245;1144;-75
2022/10/06 05:12:52;;;;;;;;;;;23.80;40.40;;;;;;487178;245;1183;-75
2022/10/06 05:14:53;;;;;;;;;;;23.80;40.40;;;;;;487208;245;1276;-75
2022/10/06 05:16:54;;;;;;;;;;;23.80;40.40;;;;;;487133;245;1235;-75
2022/10/06 05:18:56;;;;;;;;;;;23.80;40.30;;;;;;487207;244;1215;-75
2022/10/06 05:20:57;;;;;;;;;;;23.80;40.40;;;;;;487160;245;1237;-75
2022/10/06 05:22:58;;;;;;;;;;;23.80;40.40;;;;;;487208;245;1312;-75
2022/10/06 05:25:00;;;;;;;;;;;23.80;40.30;;;;;;487183;245;1233;-75
2022/10/06 05:27:02;;;;;;;;;;;23.70;40.40;;;;;;487195;244;2197;-75
2022/10/06 05:29:02;;;;;;;;;;;23.70;40.40;;;;;;487000;245;1342;-75
2022/10/06 05:31:04;;;;;;;;;;;23.80;40.50;;;;;;487210;244;1364;-75
2022/10/06 05:33:05;;;;;;;;;;;23.80;40.40;;;;;;487044;245;1270;-75
2022/10/06 05:35:06;;;;;;;;;;;23.80;40.40;;;;;;487183;245;1159;-75
2022/10/06 05:37:08;;;;;;;;;;;23.70;40.40;;;;;;487195;245;1150;-75
2022/10/06 05:39:09;;;;;;;;;;;23.70;40.50;;;;;;487192;245;1180;-75
2022/10/06 05:41:10;;;;;;;;;;;23.70;40.50;;;;;;487206;245;1252;-75
2022/10/06 05:43:12;;;;;;;;;;;23.80;40.40;;;;;;487214;244;1269;-75
2022/10/06 05:45:13;;;;;;;;;;;23.80;40.40;;;;;;487048;245;1157;-74
2022/10/06 05:47:14;;;;;;;;;;;23.80;40.30;;;;;;487102;245;2179;-74
2022/10/06 05:49:16;;;;;;;;;;;23.80;40.40;;;;;;487107;245;1071;-75
2022/10/06 05:51:17;;;;;;;;;;;23.70;40.40;;;;;;487017;245;1284;-75
2022/10/06 05:53:18;;;;;;;;;;;23.70;40.60;;;;;;487189;244;1245;-75
2022/10/06 05:55:20;;;;;;;;;;;23.70;40.50;;;;;;487185;245;1253;-75
2022/10/06 05:57:21;;;;;;;;;;;23.80;40.40;;;;;;487121;245;1131;-75
2022/10/06 05:59:22;;;;;;;;;;;23.80;40.40;;;;;;487148;245;1102;-75
2022/10/06 06:01:24;;;;;;;;;;;23.80;40.30;;;;;;487127;245;1062;-75
2022/10/06 06:03:25;;;;;;;;;;;23.90;40.40;;;;;;487034;244;1087;-75
2022/10/06 06:05:26;;;;;;;;;;;23.90;40.40;;;;;;487137;245;2179;-75
2022/10/06 06:07:28;;;;;;;;;;;23.90;40.30;;;;;;487105;244;1175;-75
2022/10/06 06:09:29;;;;;;;;;;;23.90;40.30;;;;;;487140;245;1294;-75
2022/10/06 06:11:30;;;;;;;;;;;23.80;40.40;;;;;;487100;245;1192;-75
2022/10/06 06:13:32;;;;;;;;;;;23.90;40.40;;;;;;487043;245;1134;-75
2022/10/06 06:17:52;;;;;;;;;;;23.80;40.60;;;;;;487231;245;1110;-75
2022/10/06 06:19:54;;;;;;;;;;;23.80;40.70;;;;;;487224;245;1341;-75
2022/10/06 06:21:55;;;;;;;;;;;23.80;40.70;;;;;;487098;244;1167;-75
2022/10/06 06:23:56;;;;;;;;;;;23.80;40.70;;;;;;487197;245;1141;-75
2022/10/06 06:25:59;;;;;;;;;;;23.90;40.80;;;;;;487182;244;2200;-75
2022/10/06 06:27:59;;;;;;;;;;;23.90;40.80;;;;;;487089;245;1437;-75
2022/10/06 06:30:01;;;;;;;;;;;23.90;40.90;;;;;;487075;245;1098;-75
2022/10/06 06:32:02;;;;;;;;;;;23.90;40.90;;;;;;487041;245;1128;-75
2022/10/06 06:34:05;;;;;;;;;;;23.80;41.00;;;;;;486847;244;1161;-75
2022/10/06 06:36:05;;;;;;;;;;;23.80;41.00;;;;;;486881;245;1999;-75
2022/10/06 06:38:10;;;;;;;;;;;23.80;41.00;;;;;;486741;245;1097;-75
2022/10/06 06:40:08;;;;;;;;;;;23.70;41.30;;;;;;486347;245;1479;-75
2022/10/06 06:42:09;;;;;;;;;;;23.80;41.30;;;;;;486605;245;1083;-75
2022/10/06 06:44:10;;;;;;;;;;;23.70;41.40;;;;;;486690;245;1152;-75
2022/10/06 06:46:13;;;;;;;;;;;23.80;41.40;;;;;;486692;245;2190;-75
2022/10/06 06:48:13;;;;;;;;;;;23.90;41.40;;;;;;486746;245;1461;-75
2022/10/06 06:50:16;;;;;;;;;;;23.90;41.30;;;;;;486701;244;1537;-75
2022/10/06 06:52:16;;;;;;;;;;;23.90;41.30;;;;;;486694;245;1520;-75
2022/10/06 06:54:17;;;;;;;;;;;23.80;41.40;;;;;;486720;244;1144;-75
2022/10/06 06:56:20;;;;;;;;;;;23.80;41.50;;;;;;486476;245;1189;-75
2022/10/06 06:58:20;;;;;;;;;;;23.70;41.70;;;;;;486599;245;1481;-75
2022/10/06 07:00:22;;;;;;;;;;;23.80;41.80;;;;;;486361;245;1098;-75
2022/10/06 07:02:25;;;;;;;;;;;23.80;41.70;;;;;;486405;245;1294;-74
2022/10/06 07:04:25;;;;;;;;;;;23.90;41.80;;;;;;486678;245;1354;-75
2022/10/06 07:06:27;;;;;;;;;;;23.90;41.80;;;;;;486479;245;2187;-75
2022/10/06 07:08:28;;;;;;;;;;;23.90;41.80;;;;;;486794;245;1175;-75
2022/10/06 07:10:35;;;;;;;;;;;23.90;41.80;;;;;;486754;245;1278;-74
2022/10/06 07:12:31;;;;;;;;;;;24.00;41.70;;;;;;486266;245;1506;-74
2022/10/06 07:14:32;;;;;;;;;;;24.00;41.80;;;;;;486781;245;1141;-75
2022/10/06 07:25:52;;;;;;;;;;;24.00;41.90;;;;;;486825;245;2159;-74
2022/10/06 07:27:53;;;;;;;;;;;24.00;42.00;;;;;;486698;245;1311;-74
2022/10/06 07:29:55;;;;;;;;;;;24.00;42.00;;;;;;486964;244;1316;-74
2022/10/06 07:31:56;;;;;;;;;;;23.90;42.10;;;;;;486833;245;1140;-74
2022/10/06 07:33:57;;;;;;;;;;;24.00;42.10;;;;;;486723;245;1145;-75
2022/10/06 07:35:58;;;;;;;;;;;24.00;42.20;;;;;;486700;245;1075;-75
2022/10/06 07:38:01;;;;;;;;;;;24.00;42.10;;;;;;486643;245;1071;-75
2022/10/06 07:40:01;;;;;;;;;;;24.00;42.10;;;;;;486863;245;1406;-75
2022/10/06 07:42:02;;;;;;;;;;;24.00;42.20;;;;;;486842;245;1102;-75
2022/10/06 07:44:04;;;;;;;;;;;23.90;42.30;;;;;;486587;245;1115;-75
2022/10/06 07:46:05;;;;;;;;;;;23.90;42.40;;;;;;486698;244;2154;-75
2022/10/06 07:48:06;;;;;;;;;;;24.00;42.40;;;;;;486634;245;1031;-75
2022/10/06 07:50:08;;;;;;;;;;;24.00;42.50;;;;;;486601;245;1082;-75
2022/10/06 07:52:10;;;;;;;;;;;23.90;42.40;;;;;;486654;245;1050;-75
2022/10/06 07:54:10;;;;;;;;;;;24.00;42.40;;;;;;486829;245;1476;-75
2022/10/06 07:56:14;;;;;;;;;;;24.00;42.50;;;;;;486551;245;1083;-75
2022/10/06 07:58:13;;;;;;;;;;;24.00;42.40;;;;;;486570;245;1301;-75
2022/10/06 08:00:14;;;;;;;;;;;24.00;42.60;;;;;;486673;245;1223;-75
2022/10/06 08:02:18;;;;;;;;;;;24.00;42.70;;;;;;486669;244;1128;-75
2022/10/06 08:04:18;;;;;;;;;;;24.00;42.60;;;;;;486549;245;1470;-75
2022/10/06 08:06:22;;;;;;;;;;;24.00;42.70;;;;;;486645;245;2193;-75
2022/10/06 08:08:21;;;;;;;;;;;24.00;42.70;;;;;;486531;245;1539;-75
2022/10/06 08:10:22;;;;;;;;;;;24.00;42.80;;;;;;486783;245;1198;-75
2022/10/06 08:12:32;;;;;;;;;;;23.90;42.90;;;;;;486703;244;1114;-75
2022/10/06 08:14:34;;;;;;;;;;;23.90;43.00;;;;;;486662;245;1154;-75
2022/10/06 08:16:35;;;;;;;;;;;23.80;43.10;;;;;;486638;244;1099;-75
2022/10/06 08:18:36;;;;;;;;;;;23.90;43.20;;;;;;486712;245;1106;-75
2022/10/06 08:20:38;;;;;;;;;;;23.90;43.20;;;;;;486639;244;1160;-74
2022/10/06 08:22:39;;;;;;;;;;;23.90;43.30;;;;;;486726;245;1122;-74
2022/10/06 08:24:40;;;;;;;;;;;24.00;43.20;;;;;;486746;244;1122;-75
2022/10/06 08:26:42;;;;;;;;;;;23.90;43.30;;;;;;486523;245;2194;-75
2022/10/06 08:28:43;;;;;;;;;;;23.90;43.50;;;;;;486775;245;1343;-75
2022/10/06 08:30:44;;;;;;;;;;;24.00;43.50;;;;;;486615;244;1359;-74
2022/10/06 08:32:46;;;;;;;;;;;23.90;43.60;;;;;;486473;245;1172;-75
2022/10/06 08:34:47;;;;;;;;;;;24.00;43.60;;;;;;486630;244;1284;-75
2022/10/06 08:36:48;;;;;;;;;;;23.90;43.50;;;;;;486611;245;1145;-75
2022/10/06 08:38:50;;;;;;;;;;;24.00;43.70;;;;;;486606;244;1139;-75
2022/10/06 08:40:51;;;;;;;;;;;24.00;43.80;;;;;;486735;245;1170;-75
2022/10/06 08:42:52;;;;;;;;;;;24.00;43.80;;;;;;486537;245;1198;-75
2022/10/06 08:44:55;;;;;;;;;;;23.90;43.90;;;;;;486579;245;1201;-75
2022/10/06 08:46:55;;;;;;;;;;;24.00;43.80;;;;;;486625;245;2183;-75
2022/10/06 08:48:57;;;;;;;;;;;23.90;43.80;;;;;;486664;245;1078;-75
2022/10/06 08:50:58;;;;;;;;;;;23.90;43.90;;;;;;486662;245;1479;-75
2022/10/06 08:52:59;;;;;;;;;;;23.90;44.10;;;;;;486696;245;1203;-75
2022/10/06 08:55:00;;;;;;;;;;;23.90;44.10;;;;;;486677;245;1238;-75
2022/10/06 08:57:02;;;;;;;;;;;23.90;44.30;;;;;;486481;245;1034;-75
2022/10/06 08:59:04;;;;;;;;;;;23.90;44.30;;;;;;486545;245;1083;-75
2022/10/06 09:01:05;;;;;;;;;;;23.90;44.30;;;;;;486463;244;1157;-75
2022/10/06 09:03:07;;;;;;;;;;;23.90;44.40;;;;;;486390;245;1058;-75
2022/10/06 09:05:08;;;;;;;;;;;24.00;44.40;;;;;;486629;245;1065;-75
2022/10/06 09:07:10;;;;;;;;;;;24.00;44.40;;;;;;486383;245;2178;-75
2022/10/06 09:09:11;;;;;;;;;;;24.00;44.40;;;;;;486683;245;1055;-75
2022/10/06 09:11:12;;;;;;;;;;;24.00;44.60;;;;;;486417;244;1210;-74
2022/10/06 09:13:15;;;;;;;;;;;23.90;44.80;;;;;;486556;244;1201;-75
2022/10/06 09:15:15;;;;;;;;;;;23.90;45.10;;;;;;486450;245;1404;-75
2022/10/06 09:17:17;;;;;;;;;;;23.90;45.00;;;;;;486398;245;1047;-75
2022/10/06 09:19:18;;;;;;;;;;;24.00;45.00;;;;;;486597;245;1300;-75
2022/10/06 09:21:21;;;;;;;;;;;24.00;45.20;;;;;;486473;245;1094;-75
2022/10/06 09:23:46;;;;;;;;;;;24.00;45.00;;;;;;486387;245;1388;-75
2022/10/06 09:25:24;;;;;;;;;;;24.00;45.10;;;;;;484765;245;1169;-75
2022/10/06 09:27:24;;;;;;;;;;;24.00;45.10;;;;;;486395;245;2207;-75
2022/10/06 09:29:27;;;;;;;;;;;24.00;45.20;;;;;;486516;245;1075;-75
2022/10/06 09:31:26;;;;;;;;;;;24.00;45.20;;;;;;486396;245;1331;-75
2022/10/06 09:33:30;;;;;;;;;;;24.00;45.20;;;;;;486393;245;1116;-75
2022/10/06 09:35:29;;;;;;;;;;;24.00;45.30;;;;;;486362;245;1417;-75
2022/10/06 09:37:30;;;;;;;;;;;24.00;45.40;;;;;;486425;244;1170;-75
2022/10/06 09:39:35;;;;;;;;;;;24.00;45.50;;;;;;486461;244;1117;-75
2022/10/06 09:41:34;;;;;;;;;;;23.90;45.60;;;;;;486372;245;1394;-75
2022/10/06 09:43:35;;;;;;;;;;;23.90;45.80;;;;;;486479;245;1090;-75
2022/10/06 09:45:36;;;;;;;;;;;23.90;45.70;;;;;;486539;245;1116;-75
2022/10/06 09:47:38;;;;;;;;;;;24.00;45.80;;;;;;486506;244;2201;-75
2022/10/06 09:49:40;;;;;;;;;;;24.00;45.80;;;;;;486631;245;1106;-75
2022/10/06 09:51:41;;;;;;;;;;;24.00;45.90;;;;;;486512;244;1207;-75
2022/10/06 09:53:42;;;;;;;;;;;24.00;46.00;;;;;;486708;245;1126;-75
2022/10/06 09:55:44;;;;;;;;;;;24.00;46.00;;;;;;486492;244;1153;-75
2022/10/06 09:57:45;;;;;;;;;;;24.00;46.10;;;;;;486517;245;1055;-75
2022/10/06 09:59:46;;;;;;;;;;;24.00;46.10;;;;;;486571;244;1134;-75
2022/10/06 10:01:47;;;;;;;;;;;24.00;46.30;;;;;;486342;244;1143;-75
2022/10/06 10:03:50;;;;;;;;;;;24.00;46.50;;;;;;486109;244;1063;-75
2022/10/06 10:05:53;;;;;;;;;;;23.90;46.50;;;;;;486296;245;1259;-75
2022/10/06 10:07:53;;;;;;;;;;;24.00;46.60;;;;;;486195;245;2182;-75
2022/10/06 10:09:54;;;;;;;;;;;24.00;46.50;;;;;;486235;245;1261;-75
2022/10/06 10:14:15;;;;;;;;;;;24.00;46.60;;;;;;486526;245;1138;-75
2022/10/06 10:16:18;;;;;;;;;;;24.00;46.70;;;;;;486475;245;1583;-75
2022/10/06 10:18:17;;;;;;;;;;;24.00;46.70;;;;;;486638;245;1474;-75
2022/10/06 10:20:18;;;;;;;;;;;24.00;46.80;;;;;;486618;244;1114;-75
2022/10/06 10:22:21;;;;;;;;;;;24.00;46.80;;;;;;486608;245;1064;-75
2022/10/06 10:24:22;;;;;;;;;;;24.00;47.00;;;;;;486586;245;1440;-75
2022/10/06 10:26:25;;;;;;;;;;;23.90;46.90;;;;;;486459;245;1084;-75
2022/10/06 10:28:26;;;;;;;;;;;23.90;47.10;;;;;;486754;245;2195;-75
2022/10/06 10:30:27;;;;;;;;;;;23.90;47.30;;;;;;486599;244;1104;-75
2022/10/06 10:32:29;;;;;;;;;;;23.80;47.40;;;;;;486443;244;1052;-75
2022/10/06 10:34:30;;;;;;;;;;;23.80;47.40;;;;;;486514;244;1067;-75
2022/10/06 10:36:31;;;;;;;;;;;23.90;47.30;;;;;;486526;245;1093;-75
2022/10/06 10:38:33;;;;;;;;;;;23.90;47.30;;;;;;486551;244;1168;-75
2022/10/06 10:40:34;;;;;;;;;;;23.90;47.40;;;;;;486506;245;1375;-75
2022/10/06 10:42:36;;;;;;;;;;;23.80;47.40;;;;;;486566;245;1213;-75
2022/10/06 10:44:37;;;;;;;;;;;23.90;47.40;;;;;;486685;244;1120;-74
2022/10/06 10:46:38;;;;;;;;;;;23.90;47.60;;;;;;486546;245;1128;-75
2022/10/06 10:48:39;;;;;;;;;;;24.00;47.50;;;;;;486690;244;2120;-75
2022/10/06 10:50:41;;;;;;;;;;;24.00;47.50;;;;;;486673;245;1200;-75
2022/10/06 10:52:42;;;;;;;;;;;24.00;47.60;;;;;;486609;244;1229;-75
2022/10/06 10:54:43;;;;;;;;;;;24.00;47.60;;;;;;486493;245;1261;-75
2022/10/06 10:56:47;;;;;;;;;;;24.00;47.60;;;;;;486503;244;1119;-75
2022/10/06 10:58:46;;;;;;;;;;;24.00;47.70;;;;;;486387;245;1518;-75
2022/10/06 11:00:47;;;;;;;;;;;24.00;47.70;;;;;;486576;245;1191;-75
2022/10/06 11:02:49;;;;;;;;;;;24.00;47.90;;;;;;486319;245;1242;-75
2022/10/06 11:04:50;;;;;;;;;;;24.00;47.80;;;;;;486493;245;1152;-75
2022/10/06 11:06:53;;;;;;;;;;;24.00;47.70;;;;;;486199;245;1172;-75
2022/10/06 11:08:53;;;;;;;;;;;24.00;47.70;;;;;;486307;245;2186;-75
2022/10/06 11:10:54;;;;;;;;;;;24.00;47.70;;;;;;486507;245;1070;-75
2022/10/06 11:12:55;;;;;;;;;;;24.00;47.90;;;;;;486463;244;1471;-75
2022/10/06 11:14:57;;;;;;;;;;;23.90;48.10;;;;;;486230;245;1055;-74
2022/10/06 11:16:59;;;;;;;;;;;23.90;48.10;;;;;;486218;245;1450;-75
2022/10/06 11:19:00;;;;;;;;;;;24.00;48.00;;;;;;486480;245;1429;-75
2022/10/06 11:21:02;;;;;;;;;;;24.00;48.00;;;;;;486532;244;1079;-75
2022/10/06 11:23:02;;;;;;;;;;;24.00;48.10;;;;;;486374;245;1423;-74
2022/10/06 11:25:04;;;;;;;;;;;24.00;48.00;;;;;;486426;244;1117;-75
2022/10/06 11:27:07;;;;;;;;;;;24.10;48.00;;;;;;486294;245;1101;-75
2022/10/06 11:29:06;;;;;;;;;;;24.00;47.90;;;;;;486597;245;1310;-75
2022/10/06 11:31:08;;;;;;;;;;;24.00;48.00;;;;;;486629;244;1204;-75
2022/10/06 11:33:09;;;;;;;;;;;24.00;48.10;;;;;;486353;245;1169;-75
2022/10/06 11:35:10;;;;;;;;;;;24.00;48.20;;;;;;486452;244;1150;-75
2022/10/06 11:37:12;;;;;;;;;;;24.00;48.30;;;;;;486372;245;1108;-75
2022/10/06 11:39:13;;;;;;;;;;;23.90;48.50;;;;;;486445;245;1160;-75
2022/10/06 11:41:15;;;;;;;;;;;23.90;48.50;;;;;;486494;245;1141;-75
2022/10/06 11:43:16;;;;;;;;;;;23.90;48.50;;;;;;486483;244;1153;-75
2022/10/06 11:45:18;;;;;;;;;;;23.90;48.50;;;;;;486628;245;1124;-75
2022/10/06 11:47:19;;;;;;;;;;;23.90;48.60;;;;;;486478;245;2166;-75
2022/10/06 11:49:20;;;;;;;;;;;23.80;48.70;;;;;;486558;245;1170;-75
2022/10/06 11:51:21;;;;;;;;;;;23.90;48.60;;;;;;486548;245;1104;-75
2022/10/06 11:53:23;;;;;;;;;;;23.80;48.50;;;;;;486585;244;1107;-75
2022/10/06 11:55:25;;;;;;;;;;;23.90;48.50;;;;;;486482;245;1132;-75
2022/10/06 11:57:26;;;;;;;;;;;23.90;48.50;;;;;;486513;245;1370;-75
2022/10/06 11:59:27;;;;;;;;;;;23.90;48.50;;;;;;486679;245;1228;-75
2022/10/06 12:01:28;;;;;;;;;;;23.90;48.50;;;;;;486458;244;1127;-75
2022/10/06 12:03:30;;;;;;;;;;;23.90;48.60;;;;;;486286;245;1189;-75
2022/10/06 12:05:31;;;;;;;;;;;24.00;48.50;;;;;;486384;244;1094;-75
2022/10/06 12:07:33;;;;;;;;;;;23.90;48.60;;;;;;486461;245;2191;-75
2022/10/06 12:09:34;;;;;;;;;;;24.00;48.50;;;;;;486539;245;1355;-75
2022/10/06 12:11:35;;;;;;;;;;;24.00;48.50;;;;;;486525;244;1330;-75